sensor_id;sensor_type;location;lat;lon;timestamp;pressure;altitude;pressure_sealevel;temperature;humidity
40838;BME280;29632;49.168;9.848;2022-08-25T00:01:24;97004.72;;;25.49;39.32
40838;BME280;29632;49.168;9.848;2022-08-25T00:03:51;97014.34;;;25.50;39.45
40838;BME280;29632;49.168;9.848;2022-08-25T00:06:18;97008.22;;;25.50;39.65
40838;BME280;29632;49.168;9.848;2022-08-25T00:08:44;97012.16;;;25.47;39.48
40838;BME280;29632;49.168;9.848;2022-08-25T00:11:15;97011.13;;;25.48;39.82
40838;BME280;29632;49.168;9.848;2022-08-25T00:13:45;97004.16;;;25.47;39.53
40838;BME280;29632;49.168;9.848;2022-08-25T00:16:14;97003.56;;;25.45;39.41
40838;BME280;29632;49.168;9.848;2022-08-25T00:18:42;97004.88;;;25.42;39.81
40838;BME280;29632;49.168;9.848;2022-08-25T00:21:12;97003.47;;;25.40;39.92
40838;BME280;29632;49.168;9.848;2022-08-25T00:23:38;97009.03;;;25.38;39.92
40838;BME280;29632;49.168;9.848;2022-08-25T00:26:05;97005.56;;;25.38;39.98
40838;BME280;29632;49.168;9.848;2022-08-25T00:28:31;97013.78;;;25.36;39.78
40838;BME280;29632;49.168;9.848;2022-08-25T00:30:57;97003.34;;;25.35;39.94
40838;BME280;29632;49.168;9.848;2022-08-25T00:33:24;97002.53;;;25.34;39.82
40838;BME280;29632;49.168;9.848;2022-08-25T00:35:51;97005.44;;;25.33;39.79
40838;BME280;29632;49.168;9.848;2022-08-25T00:38:17;97005.66;;;25.31;40.04
40838;BME280;29632;49.168;9.848;2022-08-25T00:40:43;97001.97;;;25.32;40.02
40838;BME280;29632;49.168;9.848;2022-08-25T00:43:10;97003.00;;;25.31;40.17
40838;BME280;29632;49.168;9.848;2022-08-25T00:45:36;97004.03;;;25.30;40.35
40838;BME280;29632;49.168;9.848;2022-08-25T00:48:02;96995.22;;;25.30;40.26
40838;BME280;29632;49.168;9.848;2022-08-25T00:50:30;96990.97;;;25.29;40.27
40838;BME280;29632;49.168;9.848;2022-08-25T00:53:02;96993.03;;;25.27;40.15
40838;BME280;29632;49.168;9.848;2022-08-25T00:55:35;96990.63;;;25.25;40.48
40838;BME280;29632;49.168;9.848;2022-08-25T00:58:17;96985.72;;;25.22;40.35
40838;BME280;29632;49.168;9.848;2022-08-25T01:00:47;96983.06;;;25.22;40.22
40838;BME280;29632;49.168;9.848;2022-08-25T01:03:15;96981.41;;;25.21;40.33
40838;BME280;29632;49.168;9.848;2022-08-25T01:05:43;96984.88;;;25.21;40.44
40838;BME280;29632;49.168;9.848;2022-08-25T01:08:09;96980.03;;;25.18;40.29
40838;BME280;29632;49.168;9.848;2022-08-25T01:10:39;96977.59;;;25.17;40.40
40838;BME280;29632;49.168;9.848;2022-08-25T01:13:14;96977.84;;;25.15;40.46
40838;BME280;29632;49.168;9.848;2022-08-25T01:15:47;96986.88;;;25.14;40.76
40838;BME280;29632;49.168;9.848;2022-08-25T01:18:14;96983.63;;;25.12;40.45
40838;BME280;29632;49.168;9.848;2022-08-25T01:20:40;96980.16;;;25.12;40.55
40838;BME280;29632;49.168;9.848;2022-08-25T01:23:06;96975.63;;;25.12;40.96
40838;BME280;29632;49.168;9.848;2022-08-25T01:25:50;96970.75;;;25.09;40.92
40838;BME280;29632;49.168;9.848;2022-08-25T01:28:19;96969.97;;;25.09;40.64
40838;BME280;29632;49.168;9.848;2022-08-25T01:30:45;96961.38;;;25.06;41.00
40838;BME280;29632;49.168;9.848;2022-08-25T01:33:11;96969.38;;;25.06;40.74
40838;BME280;29632;49.168;9.848;2022-08-25T01:35:39;96969.59;;;25.05;40.86
40838;BME280;29632;49.168;9.848;2022-08-25T01:38:06;96959.97;;;25.04;41.17
40838;BME280;29632;49.168;9.848;2022-08-25T01:40:34;96962.91;;;25.02;41.03
40838;BME280;29632;49.168;9.848;2022-08-25T01:45:44;96960.69;;;24.99;41.16
40838;BME280;29632;49.168;9.848;2022-08-25T01:48:12;96964.41;;;24.98;41.34
40838;BME280;29632;49.168;9.848;2022-08-25T01:50:39;96965.69;;;24.96;41.30
40838;BME280;29632;49.168;9.848;2022-08-25T01:53:27;96964.75;;;24.90;41.31
40838;BME280;29632;49.168;9.848;2022-08-25T01:55:54;96961.25;;;24.90;41.54
40838;BME280;29632;49.168;9.848;2022-08-25T01:58:39;96964.88;;;24.83;41.73
40838;BME280;29632;49.168;9.848;2022-08-25T02:01:09;96961.03;;;24.79;41.58
40838;BME280;29632;49.168;9.848;2022-08-25T02:03:39;96965.78;;;24.77;41.61
40838;BME280;29632;49.168;9.848;2022-08-25T02:06:05;96959.06;;;24.75;41.77
40838;BME280;29632;49.168;9.848;2022-08-25T02:08:31;96958.22;;;24.74;41.42
40838;BME280;29632;49.168;9.848;2022-08-25T02:10:57;96949.66;;;24.72;41.49
40838;BME280;29632;49.168;9.848;2022-08-25T02:13:23;96953.38;;;24.71;41.74
40838;BME280;29632;49.168;9.848;2022-08-25T02:15:54;96950.13;;;24.69;41.49
40838;BME280;29632;49.168;9.848;2022-08-25T02:18:21;96953.03;;;24.67;41.93
40838;BME280;29632;49.168;9.848;2022-08-25T02:20:47;96947.09;;;24.65;41.61
40838;BME280;29632;49.168;9.848;2022-08-25T02:23:14;96945.50;;;24.64;41.57
40838;BME280;29632;49.168;9.848;2022-08-25T02:25:41;96940.41;;;24.63;41.91
40838;BME280;29632;49.168;9.848;2022-08-25T02:28:08;96940.63;;;24.61;41.71
40838;BME280;29632;49.168;9.848;2022-08-25T02:30:38;96936.59;;;24.59;41.98
40838;BME280;29632;49.168;9.848;2022-08-25T02:33:04;96927.78;;;24.58;41.54
40838;BME280;29632;49.168;9.848;2022-08-25T02:35:31;96938.41;;;24.58;41.66
40838;BME280;29632;49.168;9.848;2022-08-25T02:37:57;96928.00;;;24.57;41.56
40838;BME280;29632;49.168;9.848;2022-08-25T02:40:22;96929.06;;;24.56;42.00
40838;BME280;29632;49.168;9.848;2022-08-25T02:42:50;96936.81;;;24.57;41.86
40838;BME280;29632;49.168;9.848;2022-08-25T02:45:17;96933.56;;;24.55;41.65
40838;BME280;29632;49.168;9.848;2022-08-25T02:47:44;96932.75;;;24.55;41.86
40838;BME280;29632;49.168;9.848;2022-08-25T02:50:10;96938.06;;;24.55;42.02
40838;BME280;29632;49.168;9.848;2022-08-25T02:52:37;96935.59;;;24.53;42.30
40838;BME280;29632;49.168;9.848;2022-08-25T02:55:07;96938.25;;;24.53;42.03
40838;BME280;29632;49.168;9.848;2022-08-25T02:57:34;96940.34;;;24.51;42.08
40838;BME280;29632;49.168;9.848;2022-08-25T03:00:00;96934.22;;;24.50;42.23
40838;BME280;29632;49.168;9.848;2022-08-25T03:02:26;96936.88;;;24.50;42.06
40838;BME280;29632;49.168;9.848;2022-08-25T03:04:53;96928.31;;;24.48;42.16
40838;BME280;29632;49.168;9.848;2022-08-25T03:07:20;96936.31;;;24.48;42.42
40838;BME280;29632;49.168;9.848;2022-08-25T03:09:46;96934.69;;;24.47;42.42
40838;BME280;29632;49.168;9.848;2022-08-25T03:12:12;96921.59;;;24.46;42.42
40838;BME280;29632;49.168;9.848;2022-08-25T03:14:39;96920.78;;;24.45;42.26
40838;BME280;29632;49.168;9.848;2022-08-25T03:17:06;96922.66;;;24.45;42.45
40838;BME280;29632;49.168;9.848;2022-08-25T03:19:33;96921.00;;;24.44;42.36
40838;BME280;29632;49.168;9.848;2022-08-25T03:21:59;96921.25;;;24.42;42.52
40838;BME280;29632;49.168;9.848;2022-08-25T03:24:26;96920.66;;;24.40;42.52
40838;BME280;29632;49.168;9.848;2022-08-25T03:26:52;96922.75;;;24.38;42.47
40838;BME280;29632;49.168;9.848;2022-08-25T03:29:27;96931.97;;;24.36;42.74
40838;BME280;29632;49.168;9.848;2022-08-25T03:31:54;96919.97;;;24.33;42.57
40838;BME280;29632;49.168;9.848;2022-08-25T03:34:22;96920.19;;;24.31;42.88
40838;BME280;29632;49.168;9.848;2022-08-25T03:36:51;96917.75;;;24.30;42.95
40838;BME280;29632;49.168;9.848;2022-08-25T03:39:20;96914.50;;;24.28;43.01
40838;BME280;29632;49.168;9.848;2022-08-25T03:41:46;96916.38;;;24.27;43.05
40838;BME280;29632;49.168;9.848;2022-08-25T03:44:13;96925.16;;;24.28;43.15
40838;BME280;29632;49.168;9.848;2022-08-25T03:46:43;96919.81;;;24.28;43.17
40838;BME280;29632;49.168;9.848;2022-08-25T03:49:13;96913.47;;;24.29;43.13
40838;BME280;29632;49.168;9.848;2022-08-25T03:51:45;96918.06;;;24.22;42.99
40838;BME280;29632;49.168;9.848;2022-08-25T03:54:17;96920.28;;;24.25;43.05
40838;BME280;29632;49.168;9.848;2022-08-25T03:56:44;96913.47;;;24.29;43.34
40838;BME280;29632;49.168;9.848;2022-08-25T03:59:10;96925.50;;;24.31;43.24
40838;BME280;29632;49.168;9.848;2022-08-25T04:01:42;96928.38;;;24.30;43.30
40838;BME280;29632;49.168;9.848;2022-08-25T04:04:10;96931.06;;;24.30;43.59
40838;BME280;29632;49.168;9.848;2022-08-25T04:06:42;96932.34;;;24.27;43.40
40838;BME280;29632;49.168;9.848;2022-08-25T04:09:09;96937.66;;;24.27;43.38
40838;BME280;29632;49.168;9.848;2022-08-25T04:11:35;96948.06;;;24.29;43.57
40838;BME280;29632;49.168;9.848;2022-08-25T04:14:02;96945.16;;;24.30;43.56
40838;BME280;29632;49.168;9.848;2022-08-25T04:16:31;96941.91;;;24.28;43.72
40838;BME280;29632;49.168;9.848;2022-08-25T04:19:04;96940.53;;;24.26;43.54
40838;BME280;29632;49.168;9.848;2022-08-25T04:21:30;96933.34;;;24.26;43.47
40838;BME280;29632;49.168;9.848;2022-08-25T04:23:57;96933.56;;;24.25;43.42
40838;BME280;29632;49.168;9.848;2022-08-25T04:26:33;96930.56;;;24.21;44.00
40838;BME280;29632;49.168;9.848;2022-08-25T04:29:01;96925.69;;;24.18;44.02
40838;BME280;29632;49.168;9.848;2022-08-25T04:31:28;96915.53;;;24.15;43.75
40838;BME280;29632;49.168;9.848;2022-08-25T04:33:55;96915.38;;;24.10;44.05
40838;BME280;29632;49.168;9.848;2022-08-25T04:36:21;96921.97;;;24.07;43.95
40838;BME280;29632;49.168;9.848;2022-08-25T04:38:48;96910.97;;;24.04;43.91
40838;BME280;29632;49.168;9.848;2022-08-25T04:41:18;96910.59;;;24.00;44.17
40838;BME280;29632;49.168;9.848;2022-08-25T04:43:45;96904.13;;;23.96;44.28
40838;BME280;29632;49.168;9.848;2022-08-25T04:46:17;96906.22;;;23.94;43.99
40838;BME280;29632;49.168;9.848;2022-08-25T04:48:43;96906.44;;;23.92;44.40
40838;BME280;29632;49.168;9.848;2022-08-25T04:51:15;96903.19;;;23.90;44.48
40838;BME280;29632;49.168;9.848;2022-08-25T04:53:42;96900.53;;;23.90;44.45
40838;BME280;29632;49.168;9.848;2022-08-25T04:56:12;96909.53;;;23.89;44.21
40838;BME280;29632;49.168;9.848;2022-08-25T04:58:39;96916.50;;;23.90;44.22
40838;BME280;29632;49.168;9.848;2022-08-25T05:01:09;96920.97;;;23.90;44.28
40838;BME280;29632;49.168;9.848;2022-08-25T05:03:35;96920.19;;;23.89;44.56
40838;BME280;29632;49.168;9.848;2022-08-25T05:06:02;96922.84;;;23.89;44.43
40838;BME280;29632;49.168;9.848;2022-08-25T05:08:28;96923.63;;;23.90;44.48
40838;BME280;29632;49.168;9.848;2022-08-25T05:10:54;96922.03;;;23.89;44.59
40838;BME280;29632;49.168;9.848;2022-08-25T05:13:22;96919.94;;;23.91;44.65
40838;BME280;29632;49.168;9.848;2022-08-25T05:15:57;96920.75;;;23.91;44.94
40838;BME280;29632;49.168;9.848;2022-08-25T05:18:25;96917.66;;;23.94;44.88
40838;BME280;29632;49.168;9.848;2022-08-25T05:20:52;96919.03;;;23.97;44.70
40838;BME280;29632;49.168;9.848;2022-08-25T05:23:23;96922.31;;;23.99;45.01
40838;BME280;29632;49.168;9.848;2022-08-25T05:25:51;96929.81;;;24.02;44.78
40838;BME280;29632;49.168;9.848;2022-08-25T05:28:19;96936.53;;;24.05;44.79
40838;BME280;29632;49.168;9.848;2022-08-25T05:30:46;96932.38;;;24.09;45.10
40838;BME280;29632;49.168;9.848;2022-08-25T05:33:14;96931.13;;;24.11;44.82
40838;BME280;29632;49.168;9.848;2022-08-25T05:35:41;96934.94;;;24.16;44.81
40838;BME280;29632;49.168;9.848;2022-08-25T05:38:07;96924.44;;;24.21;44.97
40838;BME280;29632;49.168;9.848;2022-08-25T05:40:33;96925.38;;;24.26;44.79
40838;BME280;29632;49.168;9.848;2022-08-25T05:42:59;96933.50;;;24.31;44.61
40838;BME280;29632;49.168;9.848;2022-08-25T05:45:25;96942.41;;;24.37;44.81
40838;BME280;29632;49.168;9.848;2022-08-25T05:47:51;96935.38;;;24.43;44.95
40838;BME280;29632;49.168;9.848;2022-08-25T05:50:17;96928.53;;;24.47;44.70
40838;BME280;29632;49.168;9.848;2022-08-25T05:52:43;96922.53;;;24.52;44.86
40838;BME280;29632;49.168;9.848;2022-08-25T05:55:09;96921.88;;;24.56;44.65
40838;BME280;29632;49.168;9.848;2022-08-25T05:57:36;96926.06;;;24.64;44.75
40838;BME280;29632;49.168;9.848;2022-08-25T06:00:04;96915.28;;;24.71;44.35
40838;BME280;29632;49.168;9.848;2022-08-25T06:02:30;96913.31;;;24.78;44.28
40838;BME280;29632;49.168;9.848;2022-08-25T06:05:20;96911.59;;;24.83;44.65
40838;BME280;29632;49.168;9.848;2022-08-25T06:07:49;96912.06;;;24.92;44.22
40838;BME280;29632;49.168;9.848;2022-08-25T06:10:17;96915.41;;;24.99;44.47
40838;BME280;29632;49.168;9.848;2022-08-25T06:12:45;96912.63;;;25.06;44.27
40838;BME280;29632;49.168;9.848;2022-08-25T06:15:19;96906.59;;;25.11;44.70
40838;BME280;29632;49.168;9.848;2022-08-25T06:17:46;96911.22;;;25.15;44.45
40838;BME280;29632;49.168;9.848;2022-08-25T06:20:21;96905.66;;;25.17;44.91
40838;BME280;29632;49.168;9.848;2022-08-25T06:22:49;96901.81;;;25.24;44.56
40838;BME280;29632;49.168;9.848;2022-08-25T06:25:23;96901.72;;;25.31;44.55
40838;BME280;29632;49.168;9.848;2022-08-25T06:27:50;96899.72;;;25.38;44.35
40838;BME280;29632;49.168;9.848;2022-08-25T06:30:19;96900.06;;;25.42;44.50
40838;BME280;29632;49.168;9.848;2022-08-25T06:32:46;96904.03;;;25.39;44.39
40838;BME280;29632;49.168;9.848;2022-08-25T06:35:17;96897.03;;;25.50;44.50
40838;BME280;29632;49.168;9.848;2022-08-25T06:37:43;96900.94;;;25.59;44.43
40838;BME280;29632;49.168;9.848;2022-08-25T06:40:11;96906.16;;;25.66;44.18
40838;BME280;29632;49.168;9.848;2022-08-25T06:42:38;96905.22;;;25.72;44.36
40838;BME280;29632;49.168;9.848;2022-08-25T06:45:05;96895.44;;;25.78;44.30
40838;BME280;29632;49.168;9.848;2022-08-25T06:47:31;96898.78;;;25.85;44.57
40838;BME280;29632;49.168;9.848;2022-08-25T06:49:57;96893.53;;;25.90;44.59
40838;BME280;29632;49.168;9.848;2022-08-25T06:52:23;96880.31;;;25.95;44.37
40838;BME280;29632;49.168;9.848;2022-08-25T06:54:49;96875.88;;;26.01;44.60
40838;BME280;29632;49.168;9.848;2022-08-25T06:57:15;96873.28;;;26.06;44.39
40838;BME280;29632;49.168;9.848;2022-08-25T06:59:41;96878.47;;;26.13;44.23
40838;BME280;29632;49.168;9.848;2022-08-25T07:02:07;96884.47;;;26.20;44.21
40838;BME280;29632;49.168;9.848;2022-08-25T07:04:35;96887.00;;;26.27;44.39
40838;BME280;29632;49.168;9.848;2022-08-25T07:07:01;96894.00;;;26.33;44.15
40838;BME280;29632;49.168;9.848;2022-08-25T07:09:27;96889.31;;;26.40;43.97
40838;BME280;29632;49.168;9.848;2022-08-25T07:11:53;96890.25;;;26.46;44.12
40838;BME280;29632;49.168;9.848;2022-08-25T07:14:19;96892.72;;;26.52;43.94
40838;BME280;29632;49.168;9.848;2022-08-25T07:16:46;96899.53;;;26.60;44.12
40838;BME280;29632;49.168;9.848;2022-08-25T07:19:12;96904.50;;;26.68;43.96
40838;BME280;29632;49.168;9.848;2022-08-25T07:21:40;96903.28;;;26.76;44.01
40838;BME280;29632;49.168;9.848;2022-08-25T07:24:10;96904.72;;;26.84;43.94
40838;BME280;29632;49.168;9.848;2022-08-25T07:26:39;96901.88;;;26.90;43.57
40838;BME280;29632;49.168;9.848;2022-08-25T07:29:22;96899.44;;;26.89;43.45
40838;BME280;29632;49.168;9.848;2022-08-25T07:31:48;96900.16;;;27.01;43.39
40838;BME280;29632;49.168;9.848;2022-08-25T07:34:14;96905.88;;;27.10;43.23
40838;BME280;29632;49.168;9.848;2022-08-25T07:36:59;96893.97;;;27.18;43.15
40838;BME280;29632;49.168;9.848;2022-08-25T07:39:26;96901.31;;;27.27;43.13
40838;BME280;29632;49.168;9.848;2022-08-25T07:41:52;96896.28;;;27.31;43.19
40838;BME280;29632;49.168;9.848;2022-08-25T07:44:20;96898.22;;;27.36;43.25
40838;BME280;29632;49.168;9.848;2022-08-25T07:46:48;96898.03;;;27.42;42.92
40838;BME280;29632;49.168;9.848;2022-08-25T07:49:13;96901.09;;;27.51;42.97
40838;BME280;29632;49.168;9.848;2022-08-25T07:51:40;96901.69;;;27.58;42.79
40838;BME280;29632;49.168;9.848;2022-08-25T07:54:06;96903.13;;;27.66;42.75
40838;BME280;29632;49.168;9.848;2022-08-25T07:56:32;96895.97;;;27.72;42.56
40838;BME280;29632;49.168;9.848;2022-08-25T07:58:57;96901.94;;;27.79;42.50
40838;BME280;29632;49.168;9.848;2022-08-25T08:01:24;96898.00;;;27.86;42.19
40838;BME280;29632;49.168;9.848;2022-08-25T08:03:51;96883.66;;;27.93;42.19
40838;BME280;29632;49.168;9.848;2022-08-25T08:06:20;96889.59;;;28.00;42.10
40838;BME280;29632;49.168;9.848;2022-08-25T08:08:47;96888.31;;;28.08;41.94
40838;BME280;29632;49.168;9.848;2022-08-25T08:13:46;96899.44;;;28.21;41.61
40838;BME280;29632;49.168;9.848;2022-08-25T08:16:15;96898.16;;;28.29;41.81
40838;BME280;29632;49.168;9.848;2022-08-25T08:18:43;96890.16;;;28.34;41.34
40838;BME280;29632;49.168;9.848;2022-08-25T08:21:23;96896.63;;;28.38;41.26
40838;BME280;29632;49.168;9.848;2022-08-25T08:23:51;96897.22;;;28.46;41.36
40838;BME280;29632;49.168;9.848;2022-08-25T08:26:18;96888.50;;;28.55;41.06
40838;BME280;29632;49.168;9.848;2022-08-25T08:28:44;96894.44;;;28.62;40.99
40838;BME280;29632;49.168;9.848;2022-08-25T08:31:10;96889.66;;;28.70;40.93
40838;BME280;29632;49.168;9.848;2022-08-25T08:33:37;96886.47;;;28.78;40.80
40838;BME280;29632;49.168;9.848;2022-08-25T08:36:10;96893.25;;;28.86;40.65
40838;BME280;29632;49.168;9.848;2022-08-25T08:38:38;96885.53;;;28.94;40.44
40838;BME280;29632;49.168;9.848;2022-08-25T08:41:35;96890.91;;;28.99;40.16
40838;BME280;29632;49.168;9.848;2022-08-25T08:55:32;96876.09;;;29.34;39.56
40838;BME280;29632;49.168;9.848;2022-08-25T08:58:03;96868.34;;;29.43;39.39
40838;BME280;29632;49.168;9.848;2022-08-25T09:00:30;96869.47;;;29.52;39.30
40838;BME280;29632;49.168;9.848;2022-08-25T09:03:04;96864.38;;;29.61;38.71
40838;BME280;29632;49.168;9.848;2022-08-25T09:05:42;96862.25;;;29.68;38.64
40838;BME280;29632;49.168;9.848;2022-08-25T09:08:13;96858.03;;;29.78;38.82
40838;BME280;29632;49.168;9.848;2022-08-25T09:13:35;96859.66;;;29.94;38.17
40838;BME280;29632;49.168;9.848;2022-08-25T09:20:00;96847.59;;;30.17;38.34
40838;BME280;29632;49.168;9.848;2022-08-25T09:22:36;96845.16;;;30.31;38.00
40838;BME280;29632;49.168;9.848;2022-08-25T09:25:38;96841.16;;;30.39;37.20
40838;BME280;29632;49.168;9.848;2022-08-25T09:31:14;96829.88;;;30.47;36.92
40838;BME280;29632;49.168;9.848;2022-08-25T09:33:41;96841.41;;;30.53;36.32
40838;BME280;29632;49.168;9.848;2022-08-25T09:36:07;96838.44;;;30.59;36.46
40838;BME280;29632;49.168;9.848;2022-08-25T09:38:33;96833.59;;;30.66;35.79
40838;BME280;29632;49.168;9.848;2022-08-25T09:41:00;96840.59;;;30.73;35.76
40838;BME280;29632;49.168;9.848;2022-08-25T09:46:14;96833.28;;;30.83;35.72
40838;BME280;29632;49.168;9.848;2022-08-25T09:51:26;96824.44;;;30.93;35.45
40838;BME280;29632;49.168;9.848;2022-08-25T09:56:58;96815.75;;;31.06;35.57
40838;BME280;29632;49.168;9.848;2022-08-25T09:59:35;96811.69;;;31.19;35.08
40838;BME280;29632;49.168;9.848;2022-08-25T10:02:10;96806.53;;;31.28;35.34
40838;BME280;29632;49.168;9.848;2022-08-25T10:04:45;96804.06;;;31.37;35.21
40838;BME280;29632;49.168;9.848;2022-08-25T10:07:29;96803.19;;;31.47;35.06
40838;BME280;29632;49.168;9.848;2022-08-25T10:09:58;96802.91;;;31.58;34.75
40838;BME280;29632;49.168;9.848;2022-08-25T10:12:40;96793.38;;;31.71;34.56
40838;BME280;29632;49.168;9.848;2022-08-25T10:15:34;96789.28;;;31.84;34.58
40838;BME280;29632;49.168;9.848;2022-08-25T10:18:27;96791.06;;;31.94;34.31
40838;BME280;29632;49.168;9.848;2022-08-25T10:21:12;96783.75;;;31.99;33.83
40838;BME280;29632;49.168;9.848;2022-08-25T10:23:46;96778.59;;;32.08;34.19
40838;BME280;29632;49.168;9.848;2022-08-25T10:26:53;96779.38;;;32.14;33.87
40838;BME280;29632;49.168;9.848;2022-08-25T10:35:37;96766.00;;;32.33;33.10
40838;BME280;29632;49.168;9.848;2022-08-25T10:44:09;96763.75;;;32.40;32.64
40838;BME280;29632;49.168;9.848;2022-08-25T10:50:28;96757.38;;;32.55;32.59
40838;BME280;29632;49.168;9.848;2022-08-25T10:56:14;96751.34;;;32.68;32.58
40838;BME280;29632;49.168;9.848;2022-08-25T10:59:15;96749.69;;;32.72;32.39
40838;BME280;29632;49.168;9.848;2022-08-25T11:05:04;96747.88;;;32.87;32.42
40838;BME280;29632;49.168;9.848;2022-08-25T11:07:43;96745.94;;;32.92;32.19
40838;BME280;29632;49.168;9.848;2022-08-25T11:10:39;96742.66;;;32.96;32.43
40838;BME280;29632;49.168;9.848;2022-08-25T11:13:24;96735.09;;;32.98;32.23
40838;BME280;29632;49.168;9.848;2022-08-25T11:16:01;96742.31;;;33.02;32.46
40838;BME280;29632;49.168;9.848;2022-08-25T11:18:30;96743.06;;;33.08;31.95
40838;BME280;29632;49.168;9.848;2022-08-25T11:21:18;96745.22;;;33.06;31.82
40838;BME280;29632;49.168;9.848;2022-08-25T11:24:50;96746.31;;;33.05;31.73
40838;BME280;29632;49.168;9.848;2022-08-25T11:26:54;96745.16;;;33.11;31.79
40838;BME280;29632;49.168;9.848;2022-08-25T11:29:25;96737.31;;;33.15;31.61
40838;BME280;29632;49.168;9.848;2022-08-25T11:31:58;96739.25;;;33.09;31.51
40838;BME280;29632;49.168;9.848;2022-08-25T11:34:29;96734.13;;;33.07;31.64
40838;BME280;29632;49.168;9.848;2022-08-25T11:37:25;96737.34;;;33.09;31.63
40838;BME280;29632;49.168;9.848;2022-08-25T11:45:55;96726.75;;;33.18;31.22
40838;BME280;29632;49.168;9.848;2022-08-25T11:51:46;96718.88;;;33.22;31.30
40838;BME280;29632;49.168;9.848;2022-08-25T11:54:22;96716.84;;;33.33;30.90
40838;BME280;29632;49.168;9.848;2022-08-25T11:57:22;96720.25;;;33.38;30.67
40838;BME280;29632;49.168;9.848;2022-08-25T12:02:46;96719.06;;;33.44;30.93
40838;BME280;29632;49.168;9.848;2022-08-25T12:07:58;96710.47;;;33.61;31.03
40838;BME280;29632;49.168;9.848;2022-08-25T12:10:59;96706.00;;;33.71;30.77
40838;BME280;29632;49.168;9.848;2022-08-25T12:13:46;96708.53;;;33.81;30.25
40838;BME280;29632;49.168;9.848;2022-08-25T12:27:35;96702.63;;;34.12;30.07
40838;BME280;29632;49.168;9.848;2022-08-25T12:30:44;96701.97;;;34.20;30.00
40838;BME280;29632;49.168;9.848;2022-08-25T12:33:40;96711.84;;;34.24;29.74
40838;BME280;29632;49.168;9.848;2022-08-25T12:36:10;96704.25;;;34.27;29.43
40838;BME280;29632;49.168;9.848;2022-08-25T12:38:50;96710.47;;;34.27;29.05
40838;BME280;29632;49.168;9.848;2022-08-25T12:41:22;96707.97;;;34.31;29.11
40838;BME280;29632;49.168;9.848;2022-08-25T12:43:51;96705.38;;;34.39;28.85
40838;BME280;29632;49.168;9.848;2022-08-25T12:52:20;96705.97;;;34.50;28.69
40838;BME280;29632;49.168;9.848;2022-08-25T12:54:59;96701.84;;;34.53;29.09
40838;BME280;29632;49.168;9.848;2022-08-25T13:15:43;96693.72;;;34.67;28.24
40838;BME280;29632;49.168;9.848;2022-08-25T13:18:20;96695.66;;;34.66;28.40
40838;BME280;29632;49.168;9.848;2022-08-25T13:20:51;96678.81;;;34.69;27.93
40838;BME280;29632;49.168;9.848;2022-08-25T13:23:26;96671.44;;;34.75;27.90
40838;BME280;29632;49.168;9.848;2022-08-25T13:25:53;96666.72;;;34.80;28.17
40838;BME280;29632;49.168;9.848;2022-08-25T13:28:32;96675.63;;;34.81;27.84
40838;BME280;29632;49.168;9.848;2022-08-25T13:31:05;96666.91;;;34.84;27.77
40838;BME280;29632;49.168;9.848;2022-08-25T13:33:33;96658.97;;;34.88;27.81
40838;BME280;29632;49.168;9.848;2022-08-25T13:36:00;96660.97;;;34.96;27.69
40838;BME280;29632;49.168;9.848;2022-08-25T13:38:47;96648.63;;;35.04;27.97
40838;BME280;29632;49.168;9.848;2022-08-25T13:41:23;96657.72;;;35.08;27.40
40838;BME280;29632;49.168;9.848;2022-08-25T13:43:50;96663.16;;;35.08;27.56
40838;BME280;29632;49.168;9.848;2022-08-25T13:46:22;96662.78;;;35.01;27.42
40838;BME280;29632;49.168;9.848;2022-08-25T13:48:48;96653.03;;;34.99;27.82
40838;BME280;29632;49.168;9.848;2022-08-25T13:51:25;96655.75;;;34.99;27.86
40838;BME280;29632;49.168;9.848;2022-08-25T13:53:56;96651.94;;;35.01;27.80
40838;BME280;29632;49.168;9.848;2022-08-25T13:56:39;96652.56;;;34.97;27.80
40838;BME280;29632;49.168;9.848;2022-08-25T13:59:22;96647.44;;;34.96;27.52
40838;BME280;29632;49.168;9.848;2022-08-25T14:01:51;96644.84;;;34.91;27.39
40838;BME280;29632;49.168;9.848;2022-08-25T14:04:25;96644.16;;;34.85;27.92
40838;BME280;29632;49.168;9.848;2022-08-25T14:12:43;96640.69;;;34.85;27.86
40838;BME280;29632;49.168;9.848;2022-08-25T14:17:59;96641.16;;;34.87;27.86
40838;BME280;29632;49.168;9.848;2022-08-25T14:20:29;96634.63;;;34.88;27.29
40838;BME280;29632;49.168;9.848;2022-08-25T14:23:13;96626.44;;;34.79;27.09
40838;BME280;29632;49.168;9.848;2022-08-25T14:25:41;96630.38;;;34.73;27.49
40838;BME280;29632;49.168;9.848;2022-08-25T14:28:13;96623.72;;;34.65;27.30
40838;BME280;29632;49.168;9.848;2022-08-25T14:30:48;96619.25;;;34.60;27.61
40838;BME280;29632;49.168;9.848;2022-08-25T14:33:16;96624.38;;;34.62;27.38
40838;BME280;29632;49.168;9.848;2022-08-25T14:35:49;96618.03;;;34.67;27.44
40838;BME280;29632;49.168;9.848;2022-08-25T14:38:17;96620.53;;;34.77;27.62
40838;BME280;29632;49.168;9.848;2022-08-25T14:40:44;96614.72;;;34.84;27.66
40838;BME280;29632;49.168;9.848;2022-08-25T14:43:11;96615.41;;;34.89;27.43
40838;BME280;29632;49.168;9.848;2022-08-25T14:45:40;96603.19;;;34.92;27.12
40838;BME280;29632;49.168;9.848;2022-08-25T14:48:11;96610.06;;;34.98;26.88
40838;BME280;29632;49.168;9.848;2022-08-25T14:50:39;96611.84;;;35.03;27.14
40838;BME280;29632;49.168;9.848;2022-08-25T14:53:06;96605.84;;;35.06;27.19
40838;BME280;29632;49.168;9.848;2022-08-25T14:55:32;96605.84;;;35.06;26.60
40838;BME280;29632;49.168;9.848;2022-08-25T14:57:58;96603.63;;;35.08;26.71
40838;BME280;29632;49.168;9.848;2022-08-25T15:00:25;96600.63;;;35.09;26.88
40838;BME280;29632;49.168;9.848;2022-08-25T15:02:51;96597.59;;;35.11;27.17
40838;BME280;29632;49.168;9.848;2022-08-25T15:05:22;96602.69;;;35.12;27.38
40838;BME280;29632;49.168;9.848;2022-08-25T15:07:50;96594.44;;;35.17;27.24
40838;BME280;29632;49.168;9.848;2022-08-25T15:10:35;96595.75;;;35.20;27.29
40838;BME280;29632;49.168;9.848;2022-08-25T15:13:01;96590.47;;;35.15;26.96
40838;BME280;29632;49.168;9.848;2022-08-25T15:15:26;96586.44;;;35.12;26.89